Time,TemperatureF,DewpointF,PressureIn,WindDirection,WindDirectionDegrees,WindSpeedMPH,WindSpeedGustMPH,Humidity,HourlyPrecipIn,Conditions,Clouds,dailyrainin,SolarRadiationWatts/m^2,SoftwareType,DateUTC
2015-03-06 00:05:00,3.3,-5.8,30.47,WSW,255,3.0,-999.0,65,0.00,,,0.00,0,WeatherHawk,2015-03-06 06:05:00,
2015-03-06 00:10:00,3.3,-5.8,30.47,SSW,210,2.0,-999.0,65,0.00,,,0.00,0,WeatherHawk,2015-03-06 06:10:00,
2015-03-06 00:15:00,3.3,-5.8,30.47,SSW,202,5.0,-999.0,65,0.00,,,0.00,0,WeatherHawk,2015-03-06 06:15:00,
2015-03-06 00:20:00,2.7,-6.3,30.47,SSW,201,3.0,-999.0,65,0.00,,,0.00,0,WeatherHawk,2015-03-06 06:20:00,
2015-03-06 00:25:00,2.4,-6.7,30.47,WSW,238,2.0,-999.0,65,0.00,,,0.00,0,WeatherHawk,2015-03-06 06:25:00,
2015-03-06 00:30:00,2.8,-6.0,30.46,WSW,245,1.0,-999.0,66,0.00,,,0.00,1,WeatherHawk,2015-03-06 06:30:00,
2015-03-06 00:35:00,2.8,-5.9,30.46,SSW,202,1.0,-999.0,66,0.00,,,0.00,0,WeatherHawk,2015-03-06 06:35:00,
2015-03-06 00:40:00,2.4,-6.4,30.46,SSW,205,2.0,-999.0,66,0.00,,,0.00,0,WeatherHawk,2015-03-06 06:40:00,
2015-03-06 00:45:00,2.2,-6.2,30.46,SW,231,2.0,-999.0,67,0.00,,,0.00,0,WeatherHawk,2015-03-06 06:45:00,
2015-03-06 00:55:00,2.4,-5.7,30.46,SW,215,4.0,-999.0,68,0.00,,,0.00,0,WeatherHawk,2015-03-06 06:55:00,
2015-03-06 01:00:00,1.9,-6.2,30.46,SSW,197,0.0,-999.0,68,0.00,,,0.00,0,WeatherHawk,2015-03-06 07:00:00,
2015-03-06 01:05:00,2.0,-6.1,30.45,SW,220,1.0,-999.0,68,0.00,,,0.00,1,WeatherHawk,2015-03-06 07:05:00,
2015-03-06 01:15:00,1.6,-6.1,30.46,WSW,240,1.0,-999.0,69,0.00,,,0.00,1,WeatherHawk,2015-03-06 07:15:00,
2015-03-06 01:20:00,2.0,-5.8,30.46,SW,214,4.0,-999.0,69,0.00,,,0.00,0,WeatherHawk,2015-03-06 07:20:00,
2015-03-06 01:25:00,1.7,-5.8,30.46,WSW,252,0.0,-999.0,70,0.00,,,0.00,0,WeatherHawk,2015-03-06 07:25:00,
2015-03-06 01:30:00,1.8,-5.7,30.45,WSW,238,2.0,-999.0,70,0.00,,,0.00,0,WeatherHawk,2015-03-06 07:30:00,
2015-03-06 01:35:00,1.6,-5.8,30.45,WSW,237,1.0,-999.0,70,0.00,,,0.00,0,WeatherHawk,2015-03-06 07:35:00,
2015-03-06 01:45:00,1.5,-6.0,30.45,SW,222,1.0,-999.0,70,0.00,,,0.00,0,WeatherHawk,2015-03-06 07:45:00,
2015-03-06 01:50:00,2.1,-5.2,30.45,SW,218,4.0,-999.0,71,0.00,,,0.00,0,WeatherHawk,2015-03-06 07:50:00,
2015-03-06 01:55:00,1.8,-5.7,30.44,SW,221,2.0,-999.0,70,0.00,,,0.00,0,WeatherHawk,2015-03-06 07:55:00,
2015-03-06 02:00:00,2.1,-5.4,30.44,SSW,202,3.0,-999.0,70,0.00,,,0.00,2,WeatherHawk,2015-03-06 08:00:00,
2015-03-06 02:05:00,1.6,-5.6,30.44,SSW,204,4.0,-999.0,71,0.00,,,0.00,0,WeatherHawk,2015-03-06 08:05:00,
2015-03-06 02:15:00,0.9,-6.0,30.43,SSW,205,1.0,-999.0,72,0.00,,,0.00,0,WeatherHawk,2015-03-06 08:15:00,
2015-03-06 02:20:00,1.3,-5.0,30.42,SW,230,2.0,-999.0,74,0.00,,,0.00,0,WeatherHawk,2015-03-06 08:20:00,
2015-03-06 02:25:00,0.8,-5.5,30.42,WSW,254,1.0,-999.0,74,0.00,,,0.00,0,WeatherHawk,2015-03-06 08:25:00,